Time;durP1;ratioP1;P1;durP2;ratioP2;P2;SDS_P1;SDS_P2;PMS_P1;PMS_P2;Temp;Humidity;BMP_temperature;BMP_pressure;BME280_temperature;BME280_humidity;BME280_pressure;Samples;Min_cycle;Max_cycle;Signal;HPM_P1;HPM_P2
2022/12/24 00:01:37;;;;;;;1.85;0.98;;;;;;;;;;5049845;28;20418;-86
2022/12/24 00:04:03;;;;;;;2.17;1.00;;;;;;;;;;5043428;28;20892;-87
2022/12/24 00:06:29;;;;;;;2.13;1.00;;;;;;;;;;5024247;28;20384;-87
2022/12/24 00:08:55;;;;;;;2.22;1.00;;;;;;;;;;5031981;28;20391;-87
2022/12/24 00:11:21;;;;;;;2.55;1.00;;;;;;;;;;5044295;28;20374;-87
2022/12/24 00:13:47;;;;;;;2.83;1.02;;;;;;;;;;5051952;28;20381;-88
2022/12/24 00:16:13;;;;;;;2.60;0.90;;;;;;;;;;5044003;28;20402;-88
2022/12/24 00:18:39;;;;;;;2.65;1.00;;;;;;;;;;5018999;28;20403;-86
2022/12/24 00:21:06;;;;;;;4.28;1.15;;;;;;;;;;5035321;28;20375;-87
2022/12/24 00:23:31;;;;;;;2.58;1.10;;;;;;;;;;5035136;28;20463;-88
2022/12/24 00:25:57;;;;;;;4.68;1.20;;;;;;;;;;5019001;28;20468;-87
2022/12/24 00:28:23;;;;;;;2.53;1.00;;;;;;;;;;5052193;28;20382;-86
2022/12/24 00:30:49;;;;;;;2.45;1.00;;;;;;;;;;5051677;28;20377;-86
2022/12/24 00:33:15;;;;;;;2.97;1.38;;;;;;;;;;5051703;28;20806;-86
2022/12/24 00:35:41;;;;;;;3.03;1.50;;;;;;;;;;5051810;28;20408;-86
2022/12/24 00:38:08;;;;;;;3.17;1.65;;;;;;;;;;5050551;28;21174;-88
2022/12/24 00:40:34;;;;;;;3.13;1.40;;;;;;;;;;5031312;28;20390;-88
2022/12/24 00:43:00;;;;;;;3.15;1.60;;;;;;;;;;5051614;28;20374;-88
2022/12/24 00:45:26;;;;;;;2.88;1.58;;;;;;;;;;5052031;28;20385;-87
2022/12/24 00:47:53;;;;;;;4.15;2.03;;;;;;;;;;5051232;28;20384;-87
2022/12/24 00:50:19;;;;;;;4.13;1.73;;;;;;;;;;5050736;28;21164;-87
2022/12/24 00:52:45;;;;;;;3.88;1.60;;;;;;;;;;5050269;28;20381;-88
2022/12/24 00:55:11;;;;;;;3.13;1.73;;;;;;;;;;5033074;28;20373;-88
2022/12/24 00:57:37;;;;;;;3.10;1.95;;;;;;;;;;5050320;28;20941;-88
2022/12/24 01:00:03;;;;;;;5.25;2.75;;;;;;;;;;5033108;28;20456;-87
2022/12/24 01:02:29;;;;;;;4.07;2.55;;;;;;;;;;5032902;28;20882;-86
2022/12/24 01:05:10;;;;;;;4.22;2.28;;;;;;;;;;5050828;28;20411;-86
2022/12/24 01:07:43;;;;;;;2.75;1.73;;;;;;;;;;5050574;28;20385;-86
2022/12/24 01:10:10;;;;;;;3.45;1.40;;;;;;;;;;5051502;28;20460;-86
2022/12/24 01:12:36;;;;;;;3.53;1.35;;;;;;;;;;5050965;28;20390;-88
2022/12/24 01:15:03;;;;;;;2.25;1.23;;;;;;;;;;5051129;28;20438;-86
2022/12/24 01:17:31;;;;;;;2.60;1.20;;;;;;;;;;5051200;28;20405;-88
2022/12/24 01:19:57;;;;;;;2.35;1.25;;;;;;;;;;5050295;28;20385;-88
2022/12/24 01:22:22;;;;;;;2.60;1.17;;;;;;;;;;5050137;28;20527;-87
2022/12/24 01:24:49;;;;;;;2.95;1.40;;;;;;;;;;5051137;28;20377;-86
2022/12/24 01:27:14;;;;;;;2.30;1.20;;;;;;;;;;5048855;28;20396;-87
2022/12/24 01:29:41;;;;;;;1.80;1.02;;;;;;;;;;5031489;28;20867;-87
2022/12/24 01:32:07;;;;;;;3.47;1.30;;;;;;;;;;5052178;28;20390;-88
2022/12/24 01:34:33;;;;;;;3.88;1.52;;;;;;;;;;5051428;28;20874;-87
2022/12/24 01:36:59;;;;;;;3.03;1.33;;;;;;;;;;5050749;28;20468;-88
2022/12/24 01:39:25;;;;;;;2.03;1.30;;;;;;;;;;5050929;28;20480;-89
2022/12/24 01:44:39;;;;;;;2.55;1.20;;;;;;;;;;5051228;28;20373;-87
2022/12/24 01:47:11;;;;;;;2.53;1.27;;;;;;;;;;5050942;28;20490;-87
2022/12/24 01:49:38;;;;;;;3.60;1.27;;;;;;;;;;5046323;28;20460;-87
2022/12/24 01:52:05;;;;;;;2.20;1.20;;;;;;;;;;5050853;28;20492;-89
2022/12/24 01:54:33;;;;;;;3.63;1.30;;;;;;;;;;5051179;28;20456;-86
2022/12/24 01:57:04;;;;;;;2.05;1.30;;;;;;;;;;5049734;28;20847;-88
2022/12/24 01:59:32;;;;;;;2.38;1.25;;;;;;;;;;5051098;28;20366;-86
2022/12/24 02:01:58;;;;;;;2.30;1.30;;;;;;;;;;5033394;28;20847;-86
2022/12/24 02:04:36;;;;;;;2.65;1.08;;;;;;;;;;5051094;28;20431;-86
2022/12/24 02:07:02;;;;;;;2.70;1.30;;;;;;;;;;5050898;28;20468;-86
2022/12/24 02:09:28;;;;;;;4.40;1.17;;;;;;;;;;5051630;28;20381;-86
2022/12/24 02:11:55;;;;;;;4.60;1.33;;;;;;;;;;5051559;28;20412;-85
2022/12/24 02:14:21;;;;;;;2.28;1.13;;;;;;;;;;5051625;28;20400;-86
2022/12/24 02:16:47;;;;;;;2.38;0.93;;;;;;;;;;5051646;28;20374;-86
2022/12/24 02:19:25;;;;;;;2.53;1.38;;;;;;;;;;5044478;28;20407;-87
2022/12/24 02:21:54;;;;;;;3.05;1.00;;;;;;;;;;5038844;28;20370;-87
2022/12/24 02:24:27;;;;;;;3.70;1.10;;;;;;;;;;5051520;28;20424;-86
2022/12/24 02:27:06;;;;;;;3.03;1.05;;;;;;;;;;5033688;28;20402;-85
2022/12/24 02:29:44;;;;;;;3.90;1.00;;;;;;;;;;5051423;28;20479;-86
2022/12/24 02:32:30;;;;;;;3.03;1.02;;;;;;;;;;5051445;28;20381;-87
2022/12/24 02:35:00;;;;;;;2.95;1.10;;;;;;;;;;5051047;28;20398;-87
2022/12/24 02:37:32;;;;;;;2.67;1.27;;;;;;;;;;5051717;28;20413;-86
2022/12/24 02:40:16;;;;;;;2.83;1.05;;;;;;;;;;5042613;28;20380;-86
2022/12/24 02:42:44;;;;;;;2.88;1.20;;;;;;;;;;5051496;28;20400;-88
2022/12/24 02:45:10;;;;;;;4.13;1.30;;;;;;;;;;5051354;28;20388;-88
2022/12/24 02:47:37;;;;;;;3.03;1.23;;;;;;;;;;5051301;28;20381;-87
2022/12/24 02:50:04;;;;;;;2.58;1.10;;;;;;;;;;5049378;28;20385;-87
2022/12/24 02:52:31;;;;;;;2.40;0.95;;;;;;;;;;5051335;28;20855;-87
2022/12/24 02:54:58;;;;;;;4.63;1.15;;;;;;;;;;5051342;28;20390;-87
2022/12/24 02:57:29;;;;;;;3.28;1.27;;;;;;;;;;5049844;28;20419;-87
2022/12/24 03:00:04;;;;;;;3.92;1.15;;;;;;;;;;5032643;28;20771;-87
2022/12/24 03:02:49;;;;;;;4.55;1.30;;;;;;;;;;5048667;28;20905;-86
2022/12/24 03:05:27;;;;;;;3.17;1.25;;;;;;;;;;5052229;28;20881;-88
2022/12/24 03:07:56;;;;;;;3.58;1.30;;;;;;;;;;5053625;28;20385;-88
2022/12/24 03:10:45;;;;;;;3.45;1.50;;;;;;;;;;5054749;28;20904;-87
2022/12/24 03:13:15;;;;;;;2.85;1.17;;;;;;;;;;5037221;28;20393;-88
2022/12/24 03:15:43;;;;;;;3.72;1.45;;;;;;;;;;5054872;28;20424;-86
2022/12/24 03:18:10;;;;;;;5.18;1.25;;;;;;;;;;5053804;28;20409;-87
2022/12/24 03:21:02;;;;;;;4.55;1.35;;;;;;;;;;5054666;28;20389;-87
2022/12/24 03:23:28;;;;;;;3.30;1.20;;;;;;;;;;5017042;28;20389;-87
2022/12/24 03:25:54;;;;;;;3.17;1.20;;;;;;;;;;5054712;28;20466;-87
2022/12/24 03:28:24;;;;;;;4.38;1.33;;;;;;;;;;5036587;28;20464;-87
2022/12/24 03:30:50;;;;;;;4.00;1.30;;;;;;;;;;5051276;28;20383;-86
2022/12/24 03:33:16;;;;;;;4.15;1.40;;;;;;;;;;5054481;28;20381;-87
2022/12/24 03:35:42;;;;;;;4.15;1.48;;;;;;;;;;5054472;28;20388;-86
2022/12/24 03:38:08;;;;;;;4.55;1.20;;;;;;;;;;5036389;28;20910;-87
2022/12/24 03:40:34;;;;;;;3.47;1.27;;;;;;;;;;5054272;28;20434;-87
2022/12/24 03:43:00;;;;;;;5.10;1.43;;;;;;;;;;5054362;28;20446;-87
2022/12/24 03:45:27;;;;;;;4.38;1.20;;;;;;;;;;5036337;28;20871;-87
2022/12/24 03:47:53;;;;;;;4.70;1.50;;;;;;;;;;5054229;28;20377;-87
2022/12/24 03:50:19;;;;;;;5.13;1.50;;;;;;;;;;5050805;28;20384;-88
2022/12/24 03:52:45;;;;;;;4.80;1.45;;;;;;;;;;5053545;28;20735;-86
2022/12/24 03:55:10;;;;;;;4.93;1.50;;;;;;;;;;5054135;28;20462;-87
2022/12/24 03:57:36;;;;;;;3.60;1.33;;;;;;;;;;5053875;28;20911;-87
2022/12/24 04:00:04;;;;;;;3.70;1.65;;;;;;;;;;5052353;28;20415;-87
2022/12/24 04:02:30;;;;;;;5.45;1.50;;;;;;;;;;5053243;28;20381;-86
2022/12/24 04:04:56;;;;;;;3.92;1.33;;;;;;;;;;5053428;28;20421;-87
2022/12/24 04:07:22;;;;;;;4.90;1.63;;;;;;;;;;5035889;28;20428;-88
2022/12/24 04:09:48;;;;;;;3.80;1.45;;;;;;;;;;5034485;28;20384;-87
2022/12/24 04:12:14;;;;;;;4.70;1.60;;;;;;;;;;5028916;28;20918;-88
2022/12/24 04:14:40;;;;;;;4.30;1.40;;;;;;;;;;5053602;28;20434;-87
2022/12/24 04:17:06;;;;;;;3.25;1.40;;;;;;;;;;5035803;28;20382;-87
2022/12/24 04:19:32;;;;;;;4.15;1.30;;;;;;;;;;5053465;28;20381;-87
2022/12/24 04:21:58;;;;;;;5.50;1.60;;;;;;;;;;5053609;28;20419;-86
2022/12/24 04:24:24;;;;;;;3.78;1.50;;;;;;;;;;5053414;28;20882;-87
2022/12/24 04:26:50;;;;;;;4.50;1.50;;;;;;;;;;5053516;28;20378;-86
2022/12/24 04:29:16;;;;;;;3.77;1.30;;;;;;;;;;5035268;28;20405;-87
2022/12/24 04:31:42;;;;;;;6.55;1.60;;;;;;;;;;5053308;28;20420;-87
2022/12/24 04:34:08;;;;;;;4.43;1.42;;;;;;;;;;5045040;28;20391;-87
2022/12/24 04:36:34;;;;;;;4.13;1.48;;;;;;;;;;5038646;28;20872;-86
2022/12/24 04:39:00;;;;;;;5.80;2.00;;;;;;;;;;5027485;28;20904;-86
2022/12/24 04:41:26;;;;;;;4.13;1.70;;;;;;;;;;5047535;28;20407;-88
2022/12/24 04:43:53;;;;;;;6.00;1.80;;;;;;;;;;5052462;28;20427;-87
2022/12/24 04:46:29;;;;;;;3.80;1.42;;;;;;;;;;5052701;28;20447;-87
2022/12/24 04:48:56;;;;;;;4.10;1.40;;;;;;;;;;5052053;28;20373;-87
2022/12/24 04:51:22;;;;;;;6.38;1.70;;;;;;;;;;5042956;28;20428;-88
2022/12/24 04:53:48;;;;;;;4.10;1.60;;;;;;;;;;5052841;28;20388;-87
2022/12/24 04:56:19;;;;;;;5.72;2.03;;;;;;;;;;5052917;28;20743;-88
2022/12/24 04:58:45;;;;;;;6.05;2.35;;;;;;;;;;5052496;28;20416;-87
2022/12/24 05:01:13;;;;;;;6.90;2.30;;;;;;;;;;5055190;28;20400;-88
2022/12/24 05:03:39;;;;;;;5.63;2.10;;;;;;;;;;5070079;28;20876;-87
2022/12/24 05:06:07;;;;;;;5.65;1.80;;;;;;;;;;5068849;28;20389;-87
2022/12/24 05:08:33;;;;;;;3.95;1.70;;;;;;;;;;5052753;28;20413;-87
2022/12/24 05:10:59;;;;;;;4.45;1.63;;;;;;;;;;5050605;28;20374;-87
2022/12/24 05:13:26;;;;;;;5.80;2.00;;;;;;;;;;5050688;28;20382;-86
2022/12/24 05:15:52;;;;;;;6.53;1.90;;;;;;;;;;5050649;28;20377;-87
2022/12/24 05:18:19;;;;;;;7.03;2.25;;;;;;;;;;5050480;28;20463;-86
2022/12/24 05:20:45;;;;;;;4.78;1.90;;;;;;;;;;5050487;28;20377;-85
2022/12/24 05:26:22;;;;;;;5.40;1.80;;;;;;;;;;5052203;28;20877;-86
2022/12/24 05:28:48;;;;;;;6.22;2.13;;;;;;;;;;5052280;28;20464;-85
2022/12/24 05:31:14;;;;;;;7.28;2.10;;;;;;;;;;5052087;28;20392;-85
2022/12/24 05:33:40;;;;;;;8.10;2.03;;;;;;;;;;5052494;28;20464;-86
2022/12/24 05:36:06;;;;;;;8.02;2.10;;;;;;;;;;5052063;28;20898;-86
2022/12/24 05:38:32;;;;;;;6.88;1.92;;;;;;;;;;5041875;28;20413;-86
2022/12/24 05:40:58;;;;;;;6.07;1.95;;;;;;;;;;5052038;28;20738;-86
2022/12/24 05:43:25;;;;;;;6.38;1.98;;;;;;;;;;5051882;28;20382;-86
2022/12/24 05:45:51;;;;;;;9.55;2.22;;;;;;;;;;5051834;28;20381;-85
2022/12/24 05:48:17;;;;;;;7.28;2.13;;;;;;;;;;5041901;28;20401;-86
2022/12/24 05:50:43;;;;;;;9.47;2.07;;;;;;;;;;5048627;28;20447;-86
2022/12/24 05:53:08;;;;;;;6.45;1.90;;;;;;;;;;5051840;28;20412;-86
2022/12/24 05:55:34;;;;;;;8.07;2.13;;;;;;;;;;5051751;28;20472;-86
2022/12/24 05:58:00;;;;;;;6.90;2.00;;;;;;;;;;5051774;28;20412;-85
2022/12/24 06:00:26;;;;;;;7.22;2.10;;;;;;;;;;5050482;28;20406;-87
2022/12/24 06:02:52;;;;;;;6.65;2.35;;;;;;;;;;5051127;28;20408;-86
2022/12/24 06:05:18;;;;;;;11.63;2.47;;;;;;;;;;5050381;28;20451;-86
2022/12/24 06:07:44;;;;;;;7.10;2.40;;;;;;;;;;5051408;28;20476;-86
2022/12/24 06:10:10;;;;;;;7.82;2.22;;;;;;;;;;5051606;28;20388;-86
2022/12/24 06:12:36;;;;;;;9.00;2.50;;;;;;;;;;5051528;28;20381;-87
2022/12/24 06:15:02;;;;;;;7.47;2.47;;;;;;;;;;5051611;28;20377;-86
2022/12/24 06:17:28;;;;;;;7.88;2.38;;;;;;;;;;5051510;28;20924;-86
2022/12/24 06:19:54;;;;;;;7.93;2.22;;;;;;;;;;5033577;28;20461;-86
2022/12/24 06:22:20;;;;;;;6.75;1.92;;;;;;;;;;5033669;28;20409;-86
2022/12/24 06:24:46;;;;;;;8.37;2.40;;;;;;;;;;5051443;28;20392;-86
2022/12/24 06:27:12;;;;;;;9.00;2.50;;;;;;;;;;5051502;28;20910;-86
2022/12/24 06:29:38;;;;;;;7.10;2.17;;;;;;;;;;5057625;28;20381;-86
2022/12/24 06:32:04;;;;;;;6.18;2.00;;;;;;;;;;5051363;28;20384;-86
2022/12/24 06:34:31;;;;;;;6.03;2.20;;;;;;;;;;5051427;28;20381;-86
2022/12/24 06:36:56;;;;;;;10.30;2.63;;;;;;;;;;5051928;28;20519;-87
2022/12/24 06:39:23;;;;;;;6.45;2.05;;;;;;;;;;5046735;28;20775;-85
2022/12/24 06:41:48;;;;;;;6.07;1.80;;;;;;;;;;5037722;28;20377;-88
2022/12/24 06:44:14;;;;;;;7.17;2.23;;;;;;;;;;5037239;28;20384;-86
2022/12/24 06:46:40;;;;;;;8.27;2.20;;;;;;;;;;5035957;28;20894;-87
2022/12/24 06:49:07;;;;;;;7.22;2.15;;;;;;;;;;5037534;28;20393;-86
2022/12/24 06:51:33;;;;;;;9.30;2.30;;;;;;;;;;5055191;28;20867;-86
2022/12/24 06:53:59;;;;;;;9.00;2.55;;;;;;;;;;5055161;28;20391;-87
2022/12/24 06:56:25;;;;;;;6.70;2.30;;;;;;;;;;5037470;28;20785;-87
2022/12/24 06:58:51;;;;;;;9.07;2.40;;;;;;;;;;5055086;28;20949;-88
2022/12/24 07:01:18;;;;;;;9.30;2.35;;;;;;;;;;5034731;28;20420;-87
2022/12/24 07:03:44;;;;;;;6.78;2.10;;;;;;;;;;5050772;28;20387;-86
2022/12/24 07:06:23;;;;;;;6.63;2.47;;;;;;;;;;5054040;28;20408;-87
2022/12/24 07:08:49;;;;;;;7.25;2.13;;;;;;;;;;5036587;28;20874;-87
2022/12/24 07:11:15;;;;;;;8.05;2.83;;;;;;;;;;5036760;28;20400;-87
2022/12/24 07:13:41;;;;;;;8.73;2.80;;;;;;;;;;5036971;28;20427;-87
2022/12/24 07:16:07;;;;;;;6.22;2.50;;;;;;;;;;5054599;28;20724;-87
2022/12/24 07:18:33;;;;;;;9.38;2.55;;;;;;;;;;5054604;28;20405;-86
2022/12/24 07:21:00;;;;;;;9.30;2.80;;;;;;;;;;5054506;28;20871;-87
2022/12/24 07:23:26;;;;;;;11.00;2.80;;;;;;;;;;5036876;28;20378;-88
2022/12/24 07:25:52;;;;;;;10.25;2.53;;;;;;;;;;5036751;28;20456;-87
2022/12/24 07:28:18;;;;;;;7.78;2.35;;;;;;;;;;5054300;28;20468;-87
2022/12/24 07:30:44;;;;;;;9.23;2.88;;;;;;;;;;5054371;28;20893;-86
2022/12/24 07:33:10;;;;;;;8.85;2.70;;;;;;;;;;5054356;28;20438;-86
2022/12/24 07:35:36;;;;;;;8.63;2.63;;;;;;;;;;5054380;28;20389;-86
2022/12/24 07:38:02;;;;;;;7.55;2.58;;;;;;;;;;5054263;28;20405;-87
2022/12/24 07:40:28;;;;;;;9.23;2.55;;;;;;;;;;5052048;28;20456;-87
2022/12/24 07:42:54;;;;;;;10.40;2.63;;;;;;;;;;5054258;28;20377;-88
2022/12/24 07:45:20;;;;;;;9.05;2.42;;;;;;;;;;5054023;28;20826;-87
2022/12/24 07:47:46;;;;;;;8.00;2.20;;;;;;;;;;5045466;28;20381;-87
2022/12/24 07:50:12;;;;;;;10.00;2.65;;;;;;;;;;5054053;28;20939;-87
2022/12/24 07:52:38;;;;;;;5.82;2.25;;;;;;;;;;5054048;28;20401;-87
2022/12/24 07:55:04;;;;;;;7.88;2.50;;;;;;;;;;5054108;28;20460;-88
2022/12/24 07:57:30;;;;;;;8.63;2.40;;;;;;;;;;5036295;28;20444;-87
2022/12/24 07:59:56;;;;;;;9.77;3.50;;;;;;;;;;5050599;28;20448;-88
2022/12/24 08:02:22;;;;;;;11.05;2.38;;;;;;;;;;5053466;28;20397;-87
2022/12/24 08:04:48;;;;;;;9.35;2.33;;;;;;;;;;5073110;28;20380;-87
2022/12/24 08:07:14;;;;;;;9.15;2.67;;;;;;;;;;5070396;28;20505;-87
2022/12/24 08:09:40;;;;;;;9.70;2.75;;;;;;;;;;5063416;28;20934;-87
2022/12/24 08:12:06;;;;;;;4.87;1.83;;;;;;;;;;5053800;28;20443;-87
2022/12/24 08:14:32;;;;;;;7.28;3.55;;;;;;;;;;5036047;28;20405;-87
2022/12/24 08:16:58;;;;;;;13.30;7.28;;;;;;;;;;5053691;28;20476;-87
2022/12/24 08:19:24;;;;;;;3.90;1.63;;;;;;;;;;5053425;28;20500;-88
2022/12/24 08:21:50;;;;;;;3.38;1.65;;;;;;;;;;5035794;28;20385;-88
2022/12/24 08:24:16;;;;;;;3.08;1.20;;;;;;;;;;5036049;28;20393;-88
2022/12/24 08:26:42;;;;;;;5.38;1.35;;;;;;;;;;5053475;28;20393;-87
2022/12/24 08:29:08;;;;;;;3.00;1.13;;;;;;;;;;5047194;28;20393;-87
2022/12/24 08:31:35;;;;;;;5.07;1.42;;;;;;;;;;5050384;28;20389;-87
2022/12/24 08:34:02;;;;;;;3.35;1.50;;;;;;;;;;5035660;28;20381;-87
2022/12/24 08:36:28;;;;;;;3.47;1.65;;;;;;;;;;5053334;28;20389;-87
2022/12/24 08:38:54;;;;;;;3.85;1.55;;;;;;;;;;5053132;28;20408;-85
2022/12/24 08:41:20;;;;;;;2.38;1.38;;;;;;;;;;5053289;28;20377;-86
2022/12/24 08:43:46;;;;;;;3.20;1.50;;;;;;;;;;5053093;28;20385;-87
2022/12/24 08:46:12;;;;;;;2.15;0.98;;;;;;;;;;5053206;28;20369;-86
2022/12/24 08:48:38;;;;;;;2.47;1.00;;;;;;;;;;5053015;28;20938;-86
2022/12/24 08:51:08;;;;;;;2.50;1.20;;;;;;;;;;5053081;28;20389;-86
2022/12/24 08:53:34;;;;;;;2.40;1.17;;;;;;;;;;5053110;28;20438;-87
2022/12/24 08:56:01;;;;;;;2.72;0.90;;;;;;;;;;5043419;28;20381;-87
2022/12/24 08:58:27;;;;;;;2.50;1.02;;;;;;;;;;5052105;28;20409;-85
2022/12/24 09:00:53;;;;;;;3.33;1.35;;;;;;;;;;5052619;28;20548;-85
2022/12/24 09:03:19;;;;;;;2.55;1.10;;;;;;;;;;5052731;28;20381;-86
2022/12/24 09:05:46;;;;;;;3.40;1.13;;;;;;;;;;5068877;28;20392;-86
2022/12/24 09:08:12;;;;;;;2.47;1.20;;;;;;;;;;5034194;28;20401;-86
2022/12/24 09:10:38;;;;;;;3.33;1.20;;;;;;;;;;5052169;28;20404;-88
2022/12/24 09:13:04;;;;;;;2.45;1.30;;;;;;;;;;5052477;28;20464;-84
2022/12/24 09:15:30;;;;;;;4.57;1.48;;;;;;;;;;5052674;28;20464;-85
2022/12/24 09:17:56;;;;;;;2.88;1.10;;;;;;;;;;5034716;28;20483;-85
2022/12/24 09:20:22;;;;;;;2.05;0.90;;;;;;;;;;5052525;28;20385;-85
2022/12/24 09:22:48;;;;;;;2.75;1.10;;;;;;;;;;5052460;28;20847;-85
2022/12/24 09:25:14;;;;;;;3.13;1.20;;;;;;;;;;5033383;28;20373;-84
2022/12/24 09:27:40;;;;;;;2.88;1.00;;;;;;;;;;5052465;28;20419;-88
2022/12/24 09:30:07;;;;;;;4.18;1.20;;;;;;;;;;5052246;28;20893;-87
2022/12/24 09:32:33;;;;;;;2.70;1.10;;;;;;;;;;5052435;28;20928;-86
2022/12/24 09:34:59;;;;;;;2.72;0.93;;;;;;;;;;5052210;28;20385;-86
2022/12/24 09:37:25;;;;;;;2.65;1.10;;;;;;;;;;5051825;28;20381;-85
2022/12/24 09:39:51;;;;;;;1.93;1.10;;;;;;;;;;5034204;28;20449;-87
2022/12/24 09:42:29;;;;;;;3.60;1.08;;;;;;;;;;5051735;28;20389;-87
2022/12/24 09:45:02;;;;;;;2.75;0.88;;;;;;;;;;5050288;28;20388;-86
2022/12/24 09:47:28;;;;;;;2.92;1.00;;;;;;;;;;5050269;28;20420;-86
2022/12/24 09:49:56;;;;;;;2.20;1.08;;;;;;;;;;5042585;28;20402;-85
2022/12/24 09:52:28;;;;;;;2.37;1.07;;;;;;;;;;5051918;28;20421;-85
2022/12/24 09:55:23;;;;;;;2.25;1.02;;;;;;;;;;5051398;28;20381;-88
2022/12/24 09:57:51;;;;;;;2.55;0.90;;;;;;;;;;4969943;28;20992;-85
2022/12/24 10:00:21;;;;;;;3.13;1.23;;;;;;;;;;5042557;28;20826;-85
2022/12/24 10:02:47;;;;;;;2.38;1.13;;;;;;;;;;5051816;28;20385;-89
2022/12/24 10:05:15;;;;;;;2.27;0.70;;;;;;;;;;5050374;28;20440;-86
2022/12/24 10:07:48;;;;;;;1.80;0.80;;;;;;;;;;5049153;28;20389;-83
2022/12/24 10:10:20;;;;;;;3.13;1.00;;;;;;;;;;5050748;28;20385;-86
2022/12/24 10:12:56;;;;;;;2.55;1.00;;;;;;;;;;5051322;28;20377;-84
2022/12/24 10:15:25;;;;;;;3.90;1.27;;;;;;;;;;5051717;28;20389;-84
2022/12/24 10:17:50;;;;;;;2.65;1.00;;;;;;;;;;5051077;28;20409;-85
2022/12/24 10:20:26;;;;;;;1.77;0.80;;;;;;;;;;5051516;28;20385;-86
2022/12/24 10:22:55;;;;;;;1.25;0.65;;;;;;;;;;5051524;28;20519;-84
2022/12/24 10:25:24;;;;;;;1.42;0.77;;;;;;;;;;5051607;28;20385;-86
2022/12/24 10:27:50;;;;;;;2.47;0.77;;;;;;;;;;5044063;28;20398;-89
2022/12/24 10:30:18;;;;;;;7.47;6.75;;;;;;;;;;5051143;28;20385;-88
2022/12/24 10:32:46;;;;;;;2.30;1.08;;;;;;;;;;5051440;28;20403;-90
2022/12/24 10:35:18;;;;;;;1.50;0.80;;;;;;;;;;5050884;28;20739;-88
2022/12/24 10:37:46;;;;;;;1.67;0.90;;;;;;;;;;5033435;28;20869;-88
2022/12/24 10:40:33;;;;;;;1.80;1.08;;;;;;;;;;5033363;28;20882;-88
2022/12/24 10:42:59;;;;;;;1.63;1.00;;;;;;;;;;5017374;28;20421;-89
2022/12/24 10:45:26;;;;;;;3.85;1.05;;;;;;;;;;5051217;28;20385;-87
2022/12/24 10:47:55;;;;;;;2.20;1.10;;;;;;;;;;5051388;28;20472;-89
2022/12/24 10:50:29;;;;;;;2.07;1.00;;;;;;;;;;5051303;28;20431;-88
2022/12/24 10:52:56;;;;;;;1.27;0.68;;;;;;;;;;5048234;28;20376;-89
2022/12/24 10:55:23;;;;;;;1.77;0.70;;;;;;;;;;5033204;28;20394;-90
2022/12/24 10:58:12;;;;;;;2.03;0.70;;;;;;;;;;5051111;28;20405;-88
2022/12/24 11:00:41;;;;;;;1.10;0.70;;;;;;;;;;5051036;28;20406;-88
2022/12/24 11:03:12;;;;;;;1.20;0.50;;;;;;;;;;5050874;28;20476;-87
2022/12/24 11:05:39;;;;;;;1.33;0.60;;;;;;;;;;5050164;28;20400;-88
2022/12/24 11:08:16;;;;;;;3.17;0.80;;;;;;;;;;5050402;28;20902;-87
2022/12/24 11:10:44;;;;;;;1.15;0.85;;;;;;;;;;5050547;28;20855;-88
2022/12/24 11:13:25;;;;;;;1.40;0.98;;;;;;;;;;5050604;28;20382;-89
2022/12/24 11:15:58;;;;;;;1.52;1.13;;;;;;;;;;5051133;28;20373;-88
2022/12/24 11:18:24;;;;;;;1.93;1.03;;;;;;;;;;5051014;28;20408;-87
2022/12/24 11:20:51;;;;;;;1.20;0.80;;;;;;;;;;5033162;28;20394;-87
2022/12/24 11:23:18;;;;;;;1.07;0.60;;;;;;;;;;5054495;28;20390;-89
2022/12/24 11:25:47;;;;;;;0.88;0.50;;;;;;;;;;5054758;28;20384;-88
2022/12/24 11:28:16;;;;;;;1.65;0.70;;;;;;;;;;5054577;28;20385;-89
2022/12/24 11:30:50;;;;;;;1.20;0.70;;;;;;;;;;5036891;28;20382;-88
2022/12/24 11:33:17;;;;;;;1.60;0.80;;;;;;;;;;5054566;28;20377;-89
2022/12/24 11:35:47;;;;;;;0.80;0.50;;;;;;;;;;5046791;28;20394;-88
2022/12/24 11:38:18;;;;;;;1.60;0.77;;;;;;;;;;5050085;28;20471;-89
2022/12/24 11:40:45;;;;;;;1.13;0.70;;;;;;;;;;5054455;28;20389;-90
2022/12/24 11:43:14;;;;;;;1.03;0.50;;;;;;;;;;5054027;28;20464;-88
2022/12/24 11:45:47;;;;;;;1.00;0.75;;;;;;;;;;5054300;28;20507;-89
2022/12/24 11:48:26;;;;;;;2.60;0.60;;;;;;;;;;5050005;28;20867;-88
2022/12/24 11:51:00;;;;;;;1.15;0.70;;;;;;;;;;5022115;28;20947;-88
2022/12/24 11:53:55;;;;;;;1.02;0.52;;;;;;;;;;5053975;28;20839;-88
2022/12/24 11:56:38;;;;;;;1.80;0.60;;;;;;;;;;5024687;28;20523;-90
2022/12/24 11:59:11;;;;;;;1.50;0.60;;;;;;;;;;5050692;28;20403;-87
2022/12/24 12:01:49;;;;;;;1.23;0.60;;;;;;;;;;5037793;28;20893;-87
2022/12/24 12:04:19;;;;;;;1.65;1.00;;;;;;;;;;5040140;28;20383;-87
2022/12/24 12:06:47;;;;;;;1.80;0.75;;;;;;;;;;5052991;28;20389;-89
2022/12/24 12:09:27;;;;;;;1.45;0.70;;;;;;;;;;5053319;28;20374;-88
2022/12/24 12:11:56;;;;;;;1.08;0.52;;;;;;;;;;5045436;28;20388;-88
2022/12/24 12:14:27;;;;;;;1.70;0.50;;;;;;;;;;5052507;28;20456;-89
2022/12/24 12:17:02;;;;;;;1.00;0.50;;;;;;;;;;5048676;28;20427;-87
2022/12/24 12:19:31;;;;;;;1.13;0.70;;;;;;;;;;5042157;28;20535;-88
2022/12/24 12:21:58;;;;;;;1.27;0.70;;;;;;;;;;5043013;28;20464;-86
2022/12/24 12:24:27;;;;;;;0.80;0.40;;;;;;;;;;5053583;28;20369;-87
2022/12/24 12:27:00;;;;;;;1.00;0.60;;;;;;;;;;5053685;28;20962;-90
2022/12/24 12:29:35;;;;;;;1.17;0.52;;;;;;;;;;5053644;28;20378;-92
2022/12/24 12:32:06;;;;;;;0.63;0.50;;;;;;;;;;5042974;28;20521;-89
2022/12/24 12:34:50;;;;;;;2.33;0.50;;;;;;;;;;5044446;28;20428;-88
2022/12/24 12:37:36;;;;;;;1.10;0.50;;;;;;;;;;5053151;28;20373;-89
2022/12/24 12:40:02;;;;;;;1.00;0.50;;;;;;;;;;5052959;28;21114;-89
2022/12/24 12:42:33;;;;;;;0.95;0.55;;;;;;;;;;5053167;28;20386;-89
2022/12/24 12:45:05;;;;;;;1.15;0.50;;;;;;;;;;5052943;28;20865;-88
2022/12/24 12:47:38;;;;;;;1.55;0.63;;;;;;;;;;5050112;28;20394;-90
2022/12/24 12:50:24;;;;;;;0.93;0.60;;;;;;;;;;5046417;28;20390;-86
2022/12/24 12:52:53;;;;;;;0.80;0.60;;;;;;;;;;5038994;28;20490;-85
2022/12/24 12:55:34;;;;;;;1.10;0.60;;;;;;;;;;5035192;28;20378;-84
2022/12/24 12:58:02;;;;;;;1.13;0.68;;;;;;;;;;5039482;28;20494;-85
2022/12/24 13:00:31;;;;;;;1.92;0.63;;;;;;;;;;5043295;28;20982;-85
2022/12/24 13:03:00;;;;;;;1.50;0.82;;;;;;;;;;5027746;28;20478;-87
2022/12/24 13:05:44;;;;;;;1.10;0.90;;;;;;;;;;5032557;28;20375;-89
2022/12/24 13:08:10;;;;;;;2.38;0.90;;;;;;;;;;5041247;28;20926;-88
2022/12/24 13:10:39;;;;;;;1.20;0.70;;;;;;;;;;5050993;28;20396;-88
2022/12/24 13:13:35;;;;;;;1.63;0.95;;;;;;;;;;5051131;28;20385;-87
2022/12/24 13:16:19;;;;;;;1.40;0.80;;;;;;;;;;4961998;28;20829;-88
2022/12/24 13:19:17;;;;;;;0.90;0.60;;;;;;;;;;5051155;28;20511;-88
2022/12/24 13:21:47;;;;;;;1.38;0.60;;;;;;;;;;4984662;28;20381;-89
2022/12/24 13:24:21;;;;;;;1.08;0.50;;;;;;;;;;5052507;28;20378;-87
2022/12/24 13:27:06;;;;;;;1.42;0.85;;;;;;;;;;5052328;28;20734;-88
2022/12/24 13:29:34;;;;;;;2.70;0.95;;;;;;;;;;5049109;28;20439;-88
2022/12/24 13:32:19;;;;;;;2.28;1.00;;;;;;;;;;5052269;28;20450;-88
2022/12/24 13:34:52;;;;;;;1.60;0.80;;;;;;;;;;5034657;28;20414;-87
2022/12/24 13:37:31;;;;;;;1.10;0.63;;;;;;;;;;5052262;28;20479;-88
2022/12/24 13:40:06;;;;;;;1.13;0.63;;;;;;;;;;5052026;28;20385;-87
2022/12/24 13:42:50;;;;;;;1.00;0.70;;;;;;;;;;5052236;28;20380;-88
2022/12/24 13:45:28;;;;;;;1.30;0.65;;;;;;;;;;5051703;28;20361;-86
2022/12/24 13:48:15;;;;;;;1.35;0.73;;;;;;;;;;5045201;28;20400;-87
2022/12/24 13:50:43;;;;;;;1.05;0.60;;;;;;;;;;5034781;28;20386;-87
2022/12/24 13:53:28;;;;;;;1.55;0.70;;;;;;;;;;5052075;28;20419;-86
2022/12/24 13:55:54;;;;;;;2.08;0.90;;;;;;;;;;5051959;28;20381;-87
2022/12/24 13:58:20;;;;;;;1.15;0.70;;;;;;;;;;5033941;28;20424;-87
2022/12/24 14:00:57;;;;;;;1.85;0.88;;;;;;;;;;5051624;28;20410;-88
2022/12/24 14:03:23;;;;;;;1.33;0.90;;;;;;;;;;5051854;28;20377;-87
2022/12/24 14:05:54;;;;;;;1.30;0.85;;;;;;;;;;5051755;28;20926;-88
2022/12/24 14:08:23;;;;;;;0.90;0.60;;;;;;;;;;5051800;28;20396;-87
2022/12/24 14:10:58;;;;;;;0.90;0.70;;;;;;;;;;5051606;28;20373;-87
2022/12/24 14:13:40;;;;;;;0.60;0.50;;;;;;;;;;5051431;28;20385;-86
2022/12/24 14:16:19;;;;;;;0.93;0.65;;;;;;;;;;5049833;28;20461;-87
2022/12/24 14:18:57;;;;;;;1.07;0.60;;;;;;;;;;5033652;28;20405;-86
2022/12/24 14:21:26;;;;;;;0.85;0.50;;;;;;;;;;5051679;28;20424;-87
2022/12/24 14:23:54;;;;;;;1.55;0.50;;;;;;;;;;5051736;28;20435;-86
2022/12/24 14:26:21;;;;;;;0.80;0.50;;;;;;;;;;5049710;28;20444;-85
2022/12/24 14:28:58;;;;;;;0.63;0.50;;;;;;;;;;5051580;28;20944;-86
2022/12/24 14:31:24;;;;;;;0.80;0.57;;;;;;;;;;5051434;28;20381;-86
2022/12/24 14:33:51;;;;;;;1.20;0.70;;;;;;;;;;5051592;28;20384;-86
2022/12/24 14:36:21;;;;;;;0.70;0.50;;;;;;;;;;5051504;28;20373;-86
2022/12/24 14:38:48;;;;;;;1.63;0.50;;;;;;;;;;5033490;28;20413;-86
2022/12/24 14:41:17;;;;;;;1.05;0.57;;;;;;;;;;5051504;28;20775;-86
2022/12/24 14:43:53;;;;;;;0.88;0.60;;;;;;;;;;5051319;28;20381;-86
2022/12/24 14:46:39;;;;;;;1.27;0.70;;;;;;;;;;5051387;28;20387;-86
2022/12/24 14:49:14;;;;;;;1.65;1.50;;;;;;;;;;5051276;28;20381;-86
2022/12/24 14:51:52;;;;;;;1.90;1.40;;;;;;;;;;5043283;28;20876;-87
2022/12/24 14:54:22;;;;;;;1.45;0.90;;;;;;;;;;5049583;28;20389;-86
2022/12/24 14:57:06;;;;;;;1.20;0.90;;;;;;;;;;5052615;28;20377;-86
2022/12/24 14:59:39;;;;;;;0.80;0.80;;;;;;;;;;5054884;28;20496;-86
2022/12/24 15:02:24;;;;;;;1.02;0.93;;;;;;;;;;5055218;28;20413;-87